Time;durP1;ratioP1;P1;durP2;ratioP2;P2;SDS_P1;SDS_P2;PMS_P1;PMS_P2;Temp;Humidity;BMP_temperature;BMP_pressure;BME280_temperature;BME280_humidity;BME280_pressure;Samples;Min_cycle;Max_cycle;Signal;HPM_P1;HPM_P2
2022/05/30 00:01:09;;;;;;;2.60;2.50;;;;;;;7.06;100.00;96480.50;4935754;28;20415;-47
2022/05/30 00:03:38;;;;;;;2.87;2.70;;;;;;;7.18;100.00;96473.81;4953690;28;20213;-48
2022/05/30 00:06:08;;;;;;;2.53;2.43;;;;;;;7.21;100.00;96476.06;4956035;28;20218;-50
2022/05/30 00:08:37;;;;;;;3.00;2.73;;;;;;;7.34;100.00;96477.25;4966775;28;20598;-51
2022/05/30 00:11:07;;;;;;;3.13;2.80;;;;;;;7.15;100.00;96473.34;4953009;28;20512;-48
2022/05/30 00:13:35;;;;;;;2.70;2.60;;;;;;;7.15;100.00;96479.44;4970539;28;20220;-49
2022/05/30 00:16:04;;;;;;;2.83;2.73;;;;;;;7.14;100.00;96484.88;4923164;28;21121;-48
2022/05/30 00:18:32;;;;;;;2.63;2.43;;;;;;;7.12;100.00;96479.78;4934388;28;20329;-48
2022/05/30 00:21:01;;;;;;;3.03;2.80;;;;;;;7.02;100.00;96487.94;4949378;28;20551;-51
2022/05/30 00:23:29;;;;;;;3.17;2.97;;;;;;;7.15;100.00;96482.06;4970847;28;20292;-53
2022/05/30 00:25:58;;;;;;;3.00;2.90;;;;;;;7.03;100.00;96480.88;4961540;28;20209;-46
2022/05/30 00:28:26;;;;;;;2.60;2.50;;;;;;;7.08;100.00;96481.16;4967456;28;20242;-49
2022/05/30 00:30:54;;;;;;;4.20;3.07;;;;;;;7.14;100.00;96477.81;4922199;28;20408;-53
2022/05/30 00:33:23;;;;;;;3.03;2.93;;;;;;;7.04;100.00;96480.69;4948712;28;20697;-47
2022/05/30 00:35:51;;;;;;;2.70;2.50;;;;;;;6.95;100.00;96482.56;4949208;28;20216;-47
2022/05/30 00:38:19;;;;;;;3.10;3.00;;;;;;;6.89;100.00;96483.28;4965168;28;20382;-47
2022/05/30 00:40:47;;;;;;;2.90;2.80;;;;;;;6.98;100.00;96481.41;4963928;28;20234;-52
2022/05/30 00:43:22;;;;;;;2.90;2.80;;;;;;;6.87;100.00;96480.00;4967203;28;20336;-48
2022/05/30 00:45:50;;;;;;;6.27;3.20;;;;;;;7.05;100.00;96470.97;4928547;28;20213;-50
2022/05/30 00:48:20;;;;;;;3.13;3.00;;;;;;;7.02;100.00;96466.88;4966940;28;20321;-47
2022/05/30 00:50:50;;;;;;;2.80;2.70;;;;;;;6.88;100.00;96470.31;4942610;28;20265;-50
2022/05/30 00:53:18;;;;;;;2.73;2.63;;;;;;;6.92;100.00;96466.31;4952728;28;20302;-50
2022/05/30 00:55:46;;;;;;;2.83;2.73;;;;;;;6.98;100.00;96475.31;4965070;28;20300;-53
2022/05/30 00:58:16;;;;;;;3.00;2.90;;;;;;;6.96;100.00;96464.97;4968636;28;20309;-48
2022/05/30 01:00:46;;;;;;;3.23;3.03;;;;;;;7.01;100.00;96464.41;4944617;28;20570;-49
2022/05/30 01:08:46;;;;;;;3.40;3.20;;;;;;;7.00;100.00;96453.06;4953744;28;20215;-46
2022/05/30 01:11:14;;;;;;;2.43;2.33;;;;;;;6.81;100.00;96446.50;4969706;28;20321;-45
2022/05/30 01:13:42;;;;;;;2.70;2.50;;;;;;;6.81;100.00;96441.22;4970427;28;20237;-51
2022/05/30 01:16:12;;;;;;;3.17;3.07;;;;;;;6.68;100.00;96441.81;4970167;28;20201;-49
2022/05/30 01:19:20;;;;;;;2.73;2.63;;;;;;;6.48;100.00;96433.59;4917524;28;21610;-52
2022/05/30 01:22:04;;;;;;;3.17;2.97;;;;;;;6.31;100.00;96443.41;4952110;28;20590;-51
2022/05/30 01:24:39;;;;;;;3.07;2.97;;;;;;;6.18;100.00;96436.94;4967674;28;20312;-47
2022/05/30 01:27:18;;;;;;;3.10;2.90;;;;;;;6.06;100.00;96435.69;4968146;28;21012;-49
2022/05/30 01:29:50;;;;;;;2.90;2.70;;;;;;;6.00;100.00;96441.59;4960455;28;20216;-49
2022/05/30 01:32:19;;;;;;;3.27;3.17;;;;;;;6.00;100.00;96438.97;4943878;28;20878;-49
2022/05/30 01:34:47;;;;;;;3.10;2.90;;;;;;;5.94;100.00;96435.25;4935416;28;20208;-50
2022/05/30 01:37:16;;;;;;;3.70;3.50;;;;;;;5.92;100.00;96435.41;4964101;28;20738;-50
2022/05/30 01:39:44;;;;;;;4.27;3.53;;;;;;;5.87;100.00;96432.47;4958449;28;20209;-52
2022/05/30 01:42:13;;;;;;;3.37;3.03;;;;;;;5.80;100.00;96427.09;4969257;28;20671;-51
2022/05/30 01:44:41;;;;;;;3.70;3.50;;;;;;;5.69;100.00;96422.22;4965096;28;20518;-49
2022/05/30 01:47:10;;;;;;;3.50;3.30;;;;;;;5.65;100.00;96424.34;4966970;28;20684;-50
2022/05/30 01:49:38;;;;;;;3.33;3.13;;;;;;;5.55;100.00;96425.56;4924970;28;20308;-48
2022/05/30 01:52:07;;;;;;;3.40;3.20;;;;;;;5.53;100.00;96423.09;4947360;28;20718;-50
2022/05/30 01:54:35;;;;;;;3.37;3.17;;;;;;;5.31;100.00;96427.28;4947406;28;20245;-48
2022/05/30 01:57:04;;;;;;;3.70;3.40;;;;;;;5.18;100.00;96428.66;4968408;28;20240;-48
2022/05/30 01:59:32;;;;;;;3.20;3.10;;;;;;;5.12;100.00;96429.34;4964298;28;20311;-52
2022/05/30 02:02:00;;;;;;;3.33;3.20;;;;;;;5.22;100.00;96434.38;4968913;28;20205;-46
2022/05/30 02:04:30;;;;;;;3.17;2.97;;;;;;;5.16;100.00;96435.06;4923665;28;20968;-49
2022/05/30 02:06:58;;;;;;;3.40;3.10;;;;;;;5.22;100.00;96429.97;4946146;28;20247;-47
2022/05/30 02:09:26;;;;;;;3.13;3.03;;;;;;;5.28;100.00;96427.63;4952123;28;20632;-50
2022/05/30 02:11:54;;;;;;;3.30;3.00;;;;;;;4.92;100.00;96419.19;4966067;28;20317;-49
2022/05/30 02:14:22;;;;;;;3.70;3.50;;;;;;;4.80;100.00;96417.91;4969308;28;20323;-51
2022/05/30 02:17:01;;;;;;;3.07;2.87;;;;;;;4.68;100.00;96425.28;4964078;28;20240;-49
2022/05/30 02:19:32;;;;;;;3.43;3.23;;;;;;;4.62;100.00;96421.50;4927759;28;21350;-49
2022/05/30 02:22:01;;;;;;;3.73;3.53;;;;;;;4.62;100.00;96418.88;4945803;28;20919;-49
2022/05/30 02:24:29;;;;;;;3.60;3.30;;;;;;;4.56;100.00;96422.19;4945425;28;20404;-50
2022/05/30 02:26:57;;;;;;;4.00;3.17;;;;;;;4.57;100.00;96418.56;4968375;28;21162;-47
2022/05/30 02:29:25;;;;;;;3.53;3.33;;;;;;;4.59;100.00;96419.22;4961011;28;20550;-46
2022/05/30 02:31:53;;;;;;;3.43;3.27;;;;;;;4.49;100.00;96414.13;4968686;28;20324;-49
2022/05/30 02:37:08;;;;;;;3.70;3.50;;;;;;;4.42;100.00;96410.53;4920233;28;20420;-49
2022/05/30 02:39:37;;;;;;;4.10;3.87;;;;;;;4.40;100.00;96406.47;4933684;28;20936;-50
2022/05/30 02:42:06;;;;;;;3.40;3.27;;;;;;;4.30;100.00;96409.22;4968495;28;20236;-51
2022/05/30 02:44:34;;;;;;;4.27;4.03;;;;;;;4.30;100.00;96409.22;4967027;28;20210;-56
2022/05/30 02:47:02;;;;;;;3.70;3.50;;;;;;;4.16;100.00;96411.50;4967394;28;20229;-52
2022/05/30 02:49:30;;;;;;;3.60;3.40;;;;;;;4.09;100.00;96409.72;4960075;28;20391;-53
2022/05/30 02:51:58;;;;;;;4.00;3.70;;;;;;;4.04;100.00;96407.56;4928105;28;20301;-50
2022/05/30 02:54:28;;;;;;;3.83;3.63;;;;;;;3.99;100.00;96405.44;4944283;28;20303;-49
2022/05/30 02:56:57;;;;;;;3.23;3.13;;;;;;;3.90;100.00;96403.75;4921220;28;20230;-47
2022/05/30 02:59:26;;;;;;;3.53;3.30;;;;;;;3.87;100.00;96404.09;4963849;28;20409;-50
2022/05/30 03:01:55;;;;;;;3.43;3.23;;;;;;;3.77;100.00;96406.84;4966982;28;20776;-49
2022/05/30 03:04:23;;;;;;;3.70;3.50;;;;;;;3.83;100.00;96410.63;4964754;28;20223;-48
2022/05/30 03:06:51;;;;;;;3.90;3.70;;;;;;;3.83;100.00;96408.00;4917297;28;20282;-46
2022/05/30 03:09:20;;;;;;;4.23;3.93;;;;;;;3.78;100.00;96410.31;4941005;28;20902;-49
2022/05/30 03:11:49;;;;;;;3.43;3.23;;;;;;;3.71;100.00;96408.31;4943956;28;20245;-50
2022/05/30 03:14:17;;;;;;;3.70;3.50;;;;;;;3.68;100.00;96405.19;4961020;28;20210;-49
2022/05/30 03:16:45;;;;;;;4.33;4.00;;;;;;;3.67;100.00;96409.63;4957201;28;20249;-46
2022/05/30 03:19:13;;;;;;;3.57;3.33;;;;;;;3.70;100.00;96414.53;4969565;28;20234;-48
2022/05/30 03:21:41;;;;;;;3.53;3.37;;;;;;;3.61;100.00;96411.06;4964857;28;20455;-49
2022/05/30 03:24:10;;;;;;;3.80;3.60;;;;;;;3.59;100.00;96417.44;4913341;28;20690;-50
2022/05/30 03:26:38;;;;;;;4.10;3.87;;;;;;;3.59;100.00;96417.44;4954228;28;20421;-47
2022/05/30 03:29:07;;;;;;;3.70;3.47;;;;;;;3.72;100.00;96424.84;4946911;28;20730;-49
2022/05/30 03:31:35;;;;;;;4.87;4.47;;;;;;;3.82;100.00;96420.31;4938037;28;20407;-49
2022/05/30 03:34:03;;;;;;;4.53;4.23;;;;;;;3.87;100.00;96425.06;4966491;28;20202;-49
2022/05/30 03:36:33;;;;;;;4.77;4.47;;;;;;;3.76;100.00;96419.16;4962624;28;20435;-46
2022/05/30 03:39:01;;;;;;;4.70;4.40;;;;;;;3.76;100.00;96424.38;4920769;28;20225;-48
2022/05/30 03:41:29;;;;;;;4.90;4.60;;;;;;;3.75;100.00;96427.97;4944725;28;20232;-49
2022/05/30 03:44:00;;;;;;;4.87;4.57;;;;;;;3.70;100.00;96425.03;4946538;28;20353;-48
2022/05/30 03:46:32;;;;;;;4.77;4.47;;;;;;;3.80;100.00;96424.06;4963806;28;20419;-46
2022/05/30 03:49:00;;;;;;;4.27;4.07;;;;;;;3.84;100.00;96428.00;4962578;28;20646;-49
2022/05/30 03:51:28;;;;;;;4.80;4.37;;;;;;;3.92;100.00;96433.25;4959124;28;20202;-49
2022/05/30 03:53:56;;;;;;;5.30;4.90;;;;;;;3.92;100.00;96428.00;4914264;28;20218;-49
2022/05/30 03:56:24;;;;;;;4.10;3.90;;;;;;;3.91;100.00;96429.00;4942787;28;20602;-48
2022/05/30 03:58:52;;;;;;;3.90;3.70;;;;;;;3.83;100.00;96431.59;4965311;28;20208;-49
2022/05/30 04:01:20;;;;;;;4.80;3.80;;;;;;;3.86;100.00;96426.03;4943820;28;20206;-50
2022/05/30 04:03:50;;;;;;;4.00;3.80;;;;;;;3.92;100.00;96441.13;4966066;28;20225;-53
2022/05/30 04:06:18;;;;;;;3.70;3.50;;;;;;;4.00;100.00;96435.91;4966064;28;20309;-50
2022/05/30 04:08:46;;;;;;;4.73;4.43;;;;;;;4.22;100.00;96446.75;4908233;28;20622;-54
2022/05/30 04:11:15;;;;;;;4.90;4.60;;;;;;;4.42;100.00;96455.13;4961067;28;20329;-53
2022/05/30 04:13:43;;;;;;;4.80;4.50;;;;;;;4.64;100.00;96458.91;4957829;28;20240;-48
2022/05/30 04:16:12;;;;;;;5.23;4.83;;;;;;;4.86;100.00;96455.78;4947333;28;20894;-50
2022/05/30 04:18:41;;;;;;;5.63;5.13;;;;;;;4.99;100.00;96455.28;4961315;28;20691;-48
2022/05/30 04:21:11;;;;;;;6.23;5.73;;;;;;;5.00;100.00;96455.13;4967345;28;20721;-49
2022/05/30 04:23:42;;;;;;;5.67;5.17;;;;;;;5.02;100.00;96449.69;4961923;28;20378;-48
2022/05/30 04:26:12;;;;;;;5.10;4.80;;;;;;;5.27;100.00;96453.06;4911322;28;20307;-47
2022/05/30 04:28:41;;;;;;;5.93;5.60;;;;;;;5.22;100.00;96458.00;4955132;28;20414;-54
2022/05/30 04:31:11;;;;;;;5.47;5.07;;;;;;;5.34;100.00;96458.47;4943145;28;20218;-52
2022/05/30 04:33:40;;;;;;;5.23;4.83;;;;;;;5.30;100.00;96458.00;4961572;28;20194;-51
2022/05/30 04:36:11;;;;;;;5.17;4.87;;;;;;;5.46;100.00;96462.38;4966372;28;20210;-49
2022/05/30 04:38:40;;;;;;;5.50;5.10;;;;;;;5.47;100.00;96457.94;4963871;28;20312;-49
2022/05/30 04:41:08;;;;;;;5.90;5.50;;;;;;;5.70;100.00;96450.13;4916001;28;20213;-50
2022/05/30 04:43:36;;;;;;;5.70;5.20;;;;;;;5.81;100.00;96448.94;4945744;28;20446;-49
2022/05/30 04:46:06;;;;;;;5.00;4.70;;;;;;;5.93;100.00;96446.75;4965090;28;20206;-48
2022/05/30 04:48:35;;;;;;;5.27;4.80;;;;;;;5.90;100.00;96445.28;4942356;28;21307;-51
2022/05/30 04:51:03;;;;;;;4.67;4.37;;;;;;;6.02;100.00;96456.25;4963069;28;20385;-47
2022/05/30 04:53:32;;;;;;;4.80;4.50;;;;;;;6.34;100.00;96458.84;4958441;28;20735;-48
2022/05/30 04:56:01;;;;;;;4.17;3.97;;;;;;;6.29;100.00;96455.94;4926650;28;20328;-50
2022/05/30 04:58:30;;;;;;;5.20;4.80;;;;;;;6.61;100.00;96457.50;4948472;28;20210;-48
2022/05/30 05:00:59;;;;;;;4.53;4.23;;;;;;;6.93;100.00;96463.50;4965097;28;20241;-54
2022/05/30 05:03:29;;;;;;;3.83;3.63;;;;;;;6.88;100.00;96459.78;4946571;28;20934;-47
2022/05/30 05:06:03;;;;;;;3.87;3.60;;;;;;;7.18;100.00;96463.25;4964054;28;20213;-49
2022/05/30 05:08:39;;;;;;;4.33;3.70;;;;;;;7.04;100.00;96458.81;4961307;28;20307;-46
2022/05/30 05:11:17;;;;;;;4.00;3.73;;;;;;;7.10;100.00;96460.72;4922887;28;20224;-49
2022/05/30 05:13:45;;;;;;;3.20;3.10;;;;;;;7.23;100.00;96460.09;4948832;28;20208;-50
2022/05/30 05:16:14;;;;;;;3.60;3.40;;;;;;;7.33;100.00;96459.81;4946059;28;20720;-49
2022/05/30 05:18:43;;;;;;;4.10;3.90;;;;;;;7.55;100.00;96458.09;4952124;28;21973;-49
2022/05/30 05:21:17;;;;;;;3.77;3.47;;;;;;;7.44;100.00;96458.56;4942108;28;20327;-47
2022/05/30 05:23:46;;;;;;;4.10;3.90;;;;;;;7.46;100.00;96460.00;4964657;28;20251;-50
2022/05/30 05:26:15;;;;;;;5.47;3.70;;;;;;;7.61;100.00;96467.91;4928330;28;20557;-48
2022/05/30 05:28:44;;;;;;;3.67;3.43;;;;;;;7.86;100.00;96466.81;4958801;28;20329;-49
2022/05/30 05:31:15;;;;;;;3.53;3.33;;;;;;;8.26;100.00;96467.25;4947413;28;20233;-49
2022/05/30 05:33:50;;;;;;;3.83;3.53;;;;;;;8.76;100.00;96471.81;4952040;28;20214;-47
2022/05/30 05:36:20;;;;;;;3.30;3.20;;;;;;;8.82;100.00;96471.06;4960122;28;20230;-50
2022/05/30 05:38:50;;;;;;;3.50;3.30;;;;;;;8.59;100.00;96465.97;4962311;28;20210;-49
2022/05/30 05:41:18;;;;;;;3.70;3.50;;;;;;;8.64;100.00;96472.34;4921027;28;20931;-50
2022/05/30 05:43:46;;;;;;;3.40;3.07;;;;;;;8.95;100.00;96471.19;4967062;28;20221;-49
2022/05/30 05:46:15;;;;;;;4.10;3.80;;;;;;;9.02;100.00;96468.56;4956844;28;20622;-49
2022/05/30 05:48:44;;;;;;;3.50;3.30;;;;;;;9.12;100.00;96468.25;4970219;28;20293;-54
2022/05/30 05:51:13;;;;;;;4.07;3.20;;;;;;;9.20;100.00;96465.44;4936376;28;20323;-49
2022/05/30 05:53:42;;;;;;;3.53;3.33;;;;;;;9.32;100.00;96468.38;4969646;28;20221;-47
2022/05/30 05:56:12;;;;;;;4.00;3.70;;;;;;;9.62;100.00;96475.25;4966265;28;20207;-55
2022/05/30 05:58:41;;;;;;;3.73;3.53;;;;;;;9.57;100.00;96478.50;4927347;28;20220;-48
2022/05/30 06:01:15;;;;;;;3.70;3.50;;;;;;;9.29;100.00;96479.34;4935108;28;22704;-50
2022/05/30 06:03:43;;;;;;;4.03;3.73;;;;;;;9.42;100.00;96486.56;4974602;28;20228;-52
2022/05/30 06:06:11;;;;;;;4.47;4.10;;;;;;;9.04;100.00;96482.41;4952120;28;20305;-46
2022/05/30 06:08:39;;;;;;;3.97;3.73;;;;;;;9.44;100.00;96484.53;4968673;28;20712;-47
2022/05/30 06:11:09;;;;;;;3.93;3.63;;;;;;;9.66;100.00;96487.06;4964593;28;20501;-50
2022/05/30 06:13:41;;;;;;;4.50;4.20;;;;;;;9.47;100.00;96480.66;4931672;28;20210;-49
2022/05/30 06:16:15;;;;;;;3.50;3.30;;;;;;;9.92;100.00;96482.94;4952084;28;20511;-50
2022/05/30 06:18:44;;;;;;;4.20;3.90;;;;;;;10.09;100.00;96476.31;4957364;28;20197;-47
2022/05/30 06:21:12;;;;;;;3.90;3.70;;;;;;;10.44;100.00;96477.25;4954157;28;20402;-50
2022/05/30 06:23:40;;;;;;;3.97;3.53;;;;;;;10.49;100.00;96474.81;4968629;28;20231;-48
2022/05/30 06:26:10;;;;;;;3.47;3.27;;;;;;;10.40;100.00;96472.31;4967914;28;20210;-45
2022/05/30 06:28:45;;;;;;;3.57;3.10;;;;;;;10.60;100.00;96473.38;4926366;28;20243;-47
2022/05/30 06:31:16;;;;;;;4.20;3.90;;;;;;;10.63;100.00;96471.16;4961937;28;20416;-50
2022/05/30 06:33:44;;;;;;;3.93;3.63;;;;;;;11.03;100.00;96480.97;4952315;28;20211;-47
2022/05/30 06:36:14;;;;;;;3.70;3.40;;;;;;;11.06;100.00;96477.09;4955074;28;20474;-49
2022/05/30 06:38:43;;;;;;;3.43;3.23;;;;;;;11.25;100.00;96483.41;4967636;28;20244;-51
2022/05/30 06:41:12;;;;;;;4.57;3.80;;;;;;;11.57;100.00;96483.56;4956832;28;20310;-50
2022/05/30 06:43:40;;;;;;;3.40;3.20;;;;;;;11.81;100.00;96482.06;4926538;28;20628;-50
2022/05/30 06:46:11;;;;;;;3.50;3.20;;;;;;;12.04;100.00;96479.97;4947115;28;20397;-48
2022/05/30 06:48:39;;;;;;;4.67;3.13;;;;;;;12.28;100.00;96484.56;4952415;28;20307;-50
2022/05/30 06:51:09;;;;;;;3.43;3.23;;;;;;;12.37;100.00;96484.31;4970411;28;20209;-50
2022/05/30 06:53:37;;;;;;;3.73;3.23;;;;;;;12.19;100.00;96493.00;4956005;28;20210;-49
2022/05/30 06:56:12;;;;;;;3.43;3.23;;;;;;;12.09;100.00;96486.31;4962074;28;20725;-49
2022/05/30 06:58:40;;;;;;;4.03;3.07;;;;;;;12.31;100.00;96478.00;4930587;28;20656;-55
2022/05/30 07:01:10;;;;;;;2.97;2.77;;;;;;;12.44;100.00;96485.09;4961598;28;20222;-51
2022/05/30 07:03:38;;;;;;;3.07;2.87;;;;;;;12.30;100.00;96481.69;4966063;28;20229;-48
2022/05/30 07:06:07;;;;;;;2.80;2.60;;;;;;;12.00;100.00;96487.53;4950566;28;20495;-46
2022/05/30 07:08:36;;;;;;;2.77;2.53;;;;;;;11.85;100.00;96482.47;4957854;28;20809;-49
2022/05/30 07:11:06;;;;;;;2.70;2.53;;;;;;;11.98;100.00;96482.44;4955679;28;20321;-49
2022/05/30 07:13:34;;;;;;;1.90;1.80;;;;;;;12.19;100.00;96482.38;4931458;28;20395;-48
2022/05/30 07:16:02;;;;;;;2.30;2.20;;;;;;;12.34;100.00;96482.94;4960840;28;20240;-49
2022/05/30 07:18:32;;;;;;;4.10;2.40;;;;;;;12.58;100.00;96485.84;4966127;28;20581;-51
2022/05/30 07:21:03;;;;;;;4.30;2.70;;;;;;;12.30;100.00;96479.03;4945397;28;20213;-47
2022/05/30 07:23:33;;;;;;;5.57;2.50;;;;;;;12.60;100.00;96489.09;4952078;28;20467;-49
2022/05/30 07:26:03;;;;;;;2.90;2.70;;;;;;;12.73;100.00;96481.06;4964600;28;20328;-46
2022/05/30 07:28:31;;;;;;;3.17;2.60;;;;;;;13.02;100.00;96484.09;4925932;28;20241;-54
2022/05/30 07:31:04;;;;;;;4.77;2.60;;;;;;;12.97;100.00;96485.81;4967838;28;20292;-50
2022/05/30 07:33:35;;;;;;;2.67;2.13;;;;;;;12.93;100.00;96489.91;4964325;28;20292;-49
2022/05/30 07:36:05;;;;;;;2.80;2.60;;;;;;;13.08;100.00;96495.72;4955646;28;20300;-49
2022/05/30 07:38:33;;;;;;;3.73;2.57;;;;;;;13.21;100.00;96499.28;4971898;28;20749;-53
2022/05/30 07:41:03;;;;;;;3.63;2.50;;;;;;;13.20;100.00;96495.84;4954437;28;20213;-50
2022/05/30 07:43:31;;;;;;;3.47;3.17;;;;;;;13.37;100.00;96495.28;4965361;28;20941;-53
2022/05/30 07:46:01;;;;;;;2.63;2.53;;;;;;;13.46;100.00;96500.13;4925337;28;20614;-47
2022/05/30 07:48:30;;;;;;;2.90;2.60;;;;;;;13.20;100.00;96498.50;4966315;28;20205;-56
2022/05/30 07:51:00;;;;;;;3.07;2.67;;;;;;;13.26;100.00;96497.63;4962549;28;20209;-48
2022/05/30 07:53:28;;;;;;;3.10;2.90;;;;;;;13.38;100.00;96500.38;4954953;28;20336;-49
2022/05/30 07:55:57;;;;;;;4.60;3.57;;;;;;;13.53;100.00;96496.59;4953734;28;20210;-49
2022/05/30 07:58:26;;;;;;;3.50;2.83;;;;;;;13.91;100.00;96503.56;4966094;28;20310;-52
2022/05/30 08:00:54;;;;;;;3.27;3.07;;;;;;;13.84;100.00;96493.00;4926846;28;20219;-49
2022/05/30 08:03:25;;;;;;;3.87;2.93;;;;;;;14.19;99.43;96497.69;4967892;28;20346;-53
2022/05/30 08:06:04;;;;;;;3.77;3.47;;;;;;;14.47;97.01;96496.31;4965877;28;20221;-48
2022/05/30 08:08:32;;;;;;;3.30;3.10;;;;;;;14.50;100.00;96488.91;4951693;28;20912;-48
2022/05/30 08:11:00;;;;;;;3.17;2.83;;;;;;;14.39;96.78;96504.66;4956081;28;20304;-49
2022/05/30 08:13:29;;;;;;;2.50;2.40;;;;;;;14.65;91.92;96500.00;4964134;28;20201;-48
2022/05/30 08:15:58;;;;;;;2.63;2.43;;;;;;;14.53;94.89;96496.47;4926651;28;20296;-47
2022/05/30 08:18:26;;;;;;;6.23;4.93;;;;;;;14.21;90.53;96510.81;4965296;28;20467;-49
2022/05/30 08:20:54;;;;;;;3.37;3.07;;;;;;;14.55;82.02;96494.38;4959034;28;20404;-51
2022/05/30 08:23:24;;;;;;;2.03;1.93;;;;;;;14.85;78.17;96496.25;4962600;28;20205;-54
2022/05/30 08:25:52;;;;;;;2.10;2.00;;;;;;;14.66;79.90;96493.63;4953316;28;20241;-50
2022/05/30 08:28:21;;;;;;;2.00;1.90;;;;;;;15.15;76.92;96495.38;4951561;28;20492;-52
2022/05/30 08:30:49;;;;;;;3.80;3.50;;;;;;;15.16;84.93;96491.66;4927168;28;20240;-48
2022/05/30 08:33:19;;;;;;;2.80;1.80;;;;;;;14.98;68.22;96495.25;4963659;28;20445;-51
2022/05/30 08:35:58;;;;;;;2.17;2.00;;;;;;;15.04;70.52;96492.47;4962269;28;20272;-53
2022/05/30 08:38:33;;;;;;;1.70;1.60;;;;;;;14.75;66.49;96492.28;4965671;28;20490;-50
2022/05/30 08:43:50;;;;;;;1.73;1.60;;;;;;;14.64;60.77;96487.72;4968664;28;20682;-49
2022/05/30 08:46:32;;;;;;;1.97;1.80;;;;;;;14.63;60.41;96488.75;4922337;28;22013;-52
2022/05/30 08:49:13;;;;;;;1.90;1.47;;;;;;;14.78;62.43;96485.69;4968363;28;20292;-50
2022/05/30 08:51:54;;;;;;;1.97;1.87;;;;;;;14.24;59.68;96490.91;4968480;28;20202;-50
2022/05/30 08:54:31;;;;;;;2.77;2.57;;;;;;;14.79;59.55;96478.50;4962131;28;20379;-50
2022/05/30 08:56:59;;;;;;;2.93;2.43;;;;;;;15.01;55.96;96471.59;4941800;28;20652;-50
2022/05/30 08:59:41;;;;;;;2.43;2.20;;;;;;;15.26;53.76;96483.91;4963898;28;20213;-55
2022/05/30 09:02:14;;;;;;;2.43;1.57;;;;;;;15.39;54.29;96482.06;4920043;28;20276;-53
2022/05/30 09:04:47;;;;;;;2.57;1.50;;;;;;;15.82;55.41;96480.03;4966941;28;20232;-49
2022/05/30 09:07:17;;;;;;;2.67;1.60;;;;;;;15.68;54.48;96482.97;4962692;28;20513;-52
2022/05/30 09:09:50;;;;;;;1.27;1.27;;;;;;;15.84;50.31;96477.94;4965756;28;20210;-48
2022/05/30 09:12:22;;;;;;;2.00;1.53;;;;;;;15.85;47.19;96482.25;4951702;28;20210;-50
2022/05/30 09:14:56;;;;;;;2.27;1.43;;;;;;;15.70;41.01;96486.22;4960391;28;20224;-50
2022/05/30 09:17:29;;;;;;;1.30;1.30;;;;;;;16.03;44.58;96483.97;4921891;28;20641;-53
2022/05/30 09:19:58;;;;;;;2.03;1.80;;;;;;;16.04;47.13;96485.59;4970347;28;20289;-50
2022/05/30 09:22:26;;;;;;;5.43;1.97;;;;;;;15.90;45.91;96488.53;4968061;28;20983;-49
2022/05/30 09:27:41;;;;;;;1.53;1.43;;;;;;;16.28;47.26;96486.34;4952240;28;20484;-56
2022/05/30 09:30:10;;;;;;;1.40;1.30;;;;;;;16.43;46.39;96482.34;4953411;28;20453;-54
2022/05/30 09:32:43;;;;;;;1.93;1.60;;;;;;;16.26;48.42;96482.31;4928703;28;20221;-50
2022/05/30 09:35:25;;;;;;;1.77;1.30;;;;;;;16.54;44.84;96476.16;4969420;28;20417;-53
2022/05/30 09:38:09;;;;;;;2.07;1.97;;;;;;;16.56;45.28;96475.91;4970315;28;20240;-47
2022/05/30 09:40:45;;;;;;;2.07;1.97;;;;;;;16.53;46.89;96481.75;4964048;28;20311;-47
2022/05/30 09:43:24;;;;;;;1.60;1.47;;;;;;;16.89;45.98;96480.50;4955763;28;20284;-48
2022/05/30 09:45:52;;;;;;;2.67;2.47;;;;;;;16.91;40.01;96470.38;4957667;28;20253;-49
2022/05/30 09:48:21;;;;;;;2.40;1.60;;;;;;;16.83;36.22;96470.78;4929472;28;20355;-53
2022/05/30 09:50:51;;;;;;;1.77;1.67;;;;;;;17.12;40.56;96470.75;4971512;28;20692;-54
2022/05/30 09:53:43;;;;;;;2.43;1.33;;;;;;;17.44;41.17;96472.00;4965540;28;20392;-54
2022/05/30 09:56:15;;;;;;;1.73;1.47;;;;;;;16.48;40.90;96482.44;4966340;28;20209;-55
2022/05/30 09:58:46;;;;;;;1.33;1.23;;;;;;;16.85;40.17;96471.34;4965276;28;20301;-51
2022/05/30 10:01:23;;;;;;;1.23;1.13;;;;;;;16.69;40.14;96470.25;4941184;28;20205;-47
2022/05/30 10:03:56;;;;;;;1.70;1.60;;;;;;;17.01;40.49;96464.41;4930074;28;20965;-52
2022/05/30 10:06:26;;;;;;;1.60;1.50;;;;;;;17.46;41.45;96467.22;4970483;28;20272;-51
2022/05/30 10:09:09;;;;;;;3.00;2.50;;;;;;;17.17;38.48;96464.63;4968959;28;20293;-49
2022/05/30 10:11:39;;;;;;;3.10;1.77;;;;;;;17.59;38.09;96464.19;4971435;28;20214;-52
2022/05/30 10:14:21;;;;;;;1.30;1.30;;;;;;;17.57;38.27;96470.84;4968653;28;20208;-49
2022/05/30 10:16:50;;;;;;;1.50;1.07;;;;;;;17.52;38.81;96465.44;4954367;28;20325;-49
2022/05/30 10:19:25;;;;;;;1.87;1.77;;;;;;;17.67;40.93;96468.31;4928611;28;22044;-54
2022/05/30 10:30:41;;;;;;;3.13;1.40;;;;;;;18.86;40.54;96460.81;4954270;28;20738;-49
2022/05/30 10:33:15;;;;;;;2.33;1.40;;;;;;;18.94;34.90;96452.28;4965656;28;20527;-53
2022/05/30 10:35:53;;;;;;;1.90;1.80;;;;;;;18.56;37.06;96452.22;4925984;28;20610;-49
2022/05/30 10:38:26;;;;;;;4.50;3.60;;;;;;;19.00;36.76;96453.97;4973523;28;20240;-52
2022/05/30 10:41:03;;;;;;;2.90;2.70;;;;;;;19.41;38.64;96452.66;4952963;28;20486;-52
2022/05/30 10:43:41;;;;;;;2.77;2.40;;;;;;;19.48;35.94;96453.22;4969521;28;20213;-46
2022/05/30 10:46:11;;;;;;;1.87;1.50;;;;;;;19.42;34.81;96459.66;4954342;28;20240;-52
2022/05/30 10:48:42;;;;;;;1.77;1.30;;;;;;;19.56;36.01;96450.09;4968077;28;20201;-50
2022/05/30 10:51:13;;;;;;;1.37;1.17;;;;;;;19.68;34.72;96452.53;4929269;28;20672;-50
2022/05/30 10:53:46;;;;;;;2.40;1.20;;;;;;;19.04;34.96;96449.72;4962656;28;20217;-50
2022/05/30 10:56:20;;;;;;;1.30;1.30;;;;;;;20.04;34.71;96449.25;4966923;28;20305;-52
2022/05/30 10:58:58;;;;;;;1.70;1.60;;;;;;;20.39;34.70;96445.06;4952735;28;20954;-50
2022/05/30 11:01:33;;;;;;;2.07;1.87;;;;;;;20.19;35.08;96443.91;4958142;28;20851;-49
2022/05/30 11:04:11;;;;;;;1.30;1.20;;;;;;;20.94;35.32;96448.13;4971931;28;20624;-52
2022/05/30 11:06:41;;;;;;;1.10;1.10;;;;;;;20.61;34.60;96452.09;4914374;28;20235;-49
2022/05/30 11:09:15;;;;;;;1.40;1.30;;;;;;;20.36;32.63;96448.28;4970697;28;20678;-48
2022/05/30 11:11:47;;;;;;;1.77;1.67;;;;;;;20.68;33.74;96455.34;4950316;28;20308;-48
2022/05/30 11:14:22;;;;;;;1.30;1.20;;;;;;;20.85;33.36;96452.44;4970226;28;20221;-51
2022/05/30 11:16:55;;;;;;;2.10;1.63;;;;;;;20.31;34.27;96454.44;4949875;28;20233;-47
2022/05/30 11:19:28;;;;;;;2.47;1.70;;;;;;;20.32;34.50;96452.59;4971639;28;20712;-50
2022/05/30 11:22:06;;;;;;;1.80;1.70;;;;;;;19.25;35.30;96452.56;4929170;28;21465;-50
2022/05/30 11:24:37;;;;;;;1.37;1.10;;;;;;;19.60;34.26;96459.25;4967983;28;20231;-50
2022/05/30 11:27:19;;;;;;;1.60;1.50;;;;;;;19.78;34.05;96455.31;4968568;28;20226;-52
2022/05/30 11:30:18;;;;;;;4.60;1.60;;;;;;;19.79;34.99;96453.41;4967230;28;20372;-52
2022/05/30 11:33:07;;;;;;;4.27;1.50;;;;;;;20.02;34.07;96454.09;4949909;28;20251;-47
2022/05/30 11:35:36;;;;;;;2.50;1.67;;;;;;;19.01;33.87;96457.50;4964864;28;20272;-50
2022/05/30 11:38:38;;;;;;;1.30;1.30;;;;;;;19.55;33.73;96461.91;4907494;28;20229;-57
2022/05/30 11:41:21;;;;;;;1.87;1.77;;;;;;;19.58;33.48;96449.81;4965930;28;20209;-52
2022/05/30 11:44:11;;;;;;;1.47;1.30;;;;;;;19.59;33.71;96454.94;4967208;28;20229;-47
2022/05/30 11:46:48;;;;;;;1.17;1.07;;;;;;;18.99;34.92;96462.31;4955540;28;20350;-50
2022/05/30 11:49:30;;;;;;;1.23;1.23;;;;;;;18.69;36.30;96456.34;4947404;28;20244;-49
2022/05/30 11:52:07;;;;;;;2.53;1.80;;;;;;;19.01;34.49;96452.91;4950106;28;20276;-51
2022/05/30 11:54:53;;;;;;;1.30;1.20;;;;;;;18.61;35.39;96454.97;4938417;28;20296;-48
2022/05/30 11:57:27;;;;;;;1.40;1.30;;;;;;;18.33;35.00;96456.81;4960724;28;20415;-50
2022/05/30 12:00:14;;;;;;;1.60;1.23;;;;;;;17.54;35.92;96471.34;4967456;28;20217;-52
2022/05/30 12:03:24;;;;;;;1.53;1.40;;;;;;;19.15;34.97;96455.97;4942676;28;20896;-49
2022/05/30 12:06:19;;;;;;;2.10;1.90;;;;;;;19.62;38.02;96454.41;4901466;29;20270;-48
2022/05/30 12:09:12;;;;;;;1.53;1.40;;;;;;;19.31;32.98;96464.13;4874873;28;20306;-52
2022/05/30 12:12:05;;;;;;;1.07;1.07;;;;;;;18.99;34.39;96460.41;4903847;29;20255;-49
2022/05/30 12:15:15;;;;;;;2.20;1.10;;;;;;;20.07;31.91;96456.78;4913236;29;20302;-51